Richland, Florida
Current Conditions -  °F | °C
As of 3:35 PM on Tuesday 21 Oct 2014 (Local Time) from KZPH Reporting Station
Clear Clear  
Wind Chill: 82°   Ceiling: Unl
Heat Index: 82°   Visibility: NA
Dew Point: 59°   Wind: 3mph
Humidity: 45%   Direction: 340°NNW
Pressure: 29.92"   Gusts: NA
Location:  28.3889°N, 82.209°W
Report Text: KZPH 211935Z AUTO 34003KT CLR 28/15 A2992 RMK AO2 PWINO
Loading
Personal Weather Stations






























Interactive Weather Map
Tropical Storm Tracking
New forecast layout! Learn more

10-Day Weather Forecast

Advertisements
Track Severe Weather on mobile